createdAt,value
2018-06-18T00:00:08.381Z,21.40
2018-06-18T00:02:37.098Z,21.30
2018-06-18T00:05:06.515Z,21.40
2018-06-18T00:07:35.249Z,21.30
2018-06-18T00:10:04.042Z,21.40
2018-06-18T00:12:32.794Z,21.50
2018-06-18T00:15:01.563Z,21.50
2018-06-18T00:17:30.338Z,21.40
2018-06-18T00:19:59.156Z,21.30
2018-06-18T00:22:27.979Z,21.30
2018-06-18T00:24:56.821Z,21.30
2018-06-18T00:27:25.660Z,21.30
2018-06-18T00:29:54.515Z,21.20
2018-06-18T00:32:23.451Z,21.20
2018-06-18T00:34:52.237Z,21.20
2018-06-18T00:37:20.956Z,21.20
2018-06-18T00:39:49.873Z,21.20
2018-06-18T00:42:18.641Z,21.10
2018-06-18T00:44:48.514Z,20.90
2018-06-18T00:47:17.433Z,20.90
2018-06-18T00:49:46.284Z,20.90
2018-06-18T00:57:12.132Z,21.00
2018-06-18T01:07:06.293Z,20.80
2018-06-18T01:09:35.042Z,20.60
2018-06-18T01:12:03.868Z,20.60
2018-06-18T01:14:32.658Z,20.50
2018-06-18T01:17:01.377Z,20.70
2018-06-18T01:19:30.200Z,20.80
2018-06-18T01:21:59.023Z,20.80
2018-06-18T01:24:35.646Z,20.80
2018-06-18T01:27:04.489Z,20.80
2018-06-18T01:29:33.249Z,20.80
2018-06-18T01:34:30.624Z,20.70
2018-06-18T01:39:27.954Z,20.50
2018-06-18T01:41:56.832Z,20.50
2018-06-18T01:44:25.819Z,20.50
2018-06-18T01:46:54.557Z,20.60
2018-06-18T01:49:23.289Z,20.50
2018-06-18T01:51:52.056Z,20.50
2018-06-18T01:56:49.425Z,20.50
2018-06-18T02:01:46.675Z,20.50
2018-06-18T02:04:15.478Z,20.50
2018-06-18T02:06:44.200Z,20.40
2018-06-18T02:09:13.490Z,20.40
2018-06-18T02:11:42.239Z,20.40
2018-06-18T02:14:11.465Z,20.40
2018-06-18T02:16:40.401Z,20.30
2018-06-18T02:19:09.652Z,20.30
2018-06-18T02:24:07.410Z,20.30
2018-06-18T02:26:36.211Z,20.20
2018-06-18T02:31:44.679Z,20.20
2018-06-18T02:34:19.040Z,20.20
2018-06-18T02:36:53.386Z,20.20
2018-06-18T02:39:22.132Z,20.20
2018-06-18T02:41:50.889Z,20.20
2018-06-18T02:44:19.670Z,20.20
2018-06-18T02:46:48.466Z,20.10
2018-06-18T02:49:17.261Z,20.00
2018-06-18T02:51:46.055Z,20.00
2018-06-18T02:54:14.796Z,20.00
2018-06-18T02:56:59.473Z,20.00
2018-06-18T03:01:57.729Z,20.00
2018-06-18T03:04:26.476Z,20.10
2018-06-18T03:06:55.375Z,20.10
2018-06-18T03:09:24.224Z,20.10
2018-06-18T03:11:53.001Z,20.00
2018-06-18T03:14:21.750Z,20.00
2018-06-18T03:16:50.500Z,20.00
2018-06-18T03:24:32.832Z,20.00
2018-06-18T03:32:07.658Z,20.10
2018-06-18T03:34:37.129Z,20.20
2018-06-18T03:37:07.606Z,20.20
2018-06-18T03:39:36.365Z,20.20
2018-06-18T03:42:05.333Z,20.20
2018-06-18T03:44:42.383Z,20.20
2018-06-18T03:47:29.647Z,20.30
2018-06-18T03:49:58.491Z,20.20
2018-06-18T03:52:27.389Z,20.20
2018-06-18T03:54:59.593Z,20.20
2018-06-18T03:57:28.352Z,20.20
2018-06-18T03:59:57.139Z,20.10
2018-06-18T04:02:42.632Z,20.00
2018-06-18T04:05:16.843Z,20.00
2018-06-18T04:10:25.210Z,20.00
2018-06-18T04:12:54.180Z,20.00
2018-06-18T04:15:22.957Z,19.90
2018-06-18T04:20:20.143Z,19.90
2018-06-18T04:22:49.139Z,20.00
2018-06-18T04:27:46.370Z,20.10
2018-06-18T04:30:16.296Z,20.10
2018-06-18T04:32:45.139Z,20.20
2018-06-18T04:35:13.926Z,20.20
2018-06-18T04:37:42.823Z,20.20
2018-06-18T04:40:11.493Z,20.20
2018-06-18T04:42:45.663Z,20.20
2018-06-18T04:45:19.844Z,20.10
2018-06-18T04:47:54.110Z,20.20
2018-06-18T04:52:56.926Z,20.40
2018-06-18T04:55:25.740Z,20.50
2018-06-18T04:57:54.527Z,20.50
2018-06-18T05:00:27.599Z,20.60
2018-06-18T05:02:56.515Z,20.70
2018-06-18T05:05:25.340Z,20.70
2018-06-18T05:07:59.913Z,20.70
2018-06-18T05:10:29.407Z,20.70
2018-06-18T05:12:58.355Z,20.80
2018-06-18T05:15:30.262Z,20.80
2018-06-18T05:17:59.028Z,20.80
2018-06-18T05:20:28.169Z,20.90
2018-06-18T05:22:56.848Z,20.80
2018-06-18T05:25:26.141Z,20.70
2018-06-18T05:27:54.940Z,20.60
2018-06-18T05:30:28.352Z,20.60
2018-06-18T05:32:57.373Z,20.60
2018-06-18T05:35:27.092Z,20.70
2018-06-18T05:38:04.003Z,20.70
2018-06-18T05:40:32.733Z,20.80
2018-06-18T05:43:01.516Z,20.70
2018-06-18T05:45:30.287Z,20.70
2018-06-18T05:47:59.041Z,20.70
2018-06-18T05:52:56.268Z,20.80
2018-06-18T05:55:25.128Z,20.80
2018-06-18T05:57:53.925Z,20.90
2018-06-18T06:00:22.638Z,20.90
2018-06-18T06:02:51.401Z,20.90
2018-06-18T06:05:20.130Z,20.90
2018-06-18T06:07:48.909Z,20.90
2018-06-18T06:10:17.685Z,20.80
2018-06-18T06:12:46.492Z,20.90
2018-06-18T06:15:15.189Z,21.00
2018-06-18T06:17:43.945Z,20.90
2018-06-18T06:20:12.763Z,21.00
2018-06-18T06:22:41.589Z,21.10
2018-06-18T06:25:10.385Z,21.10
2018-06-18T06:27:39.528Z,21.10
2018-06-18T06:30:08.296Z,21.00
2018-06-18T06:32:37.097Z,21.00
2018-06-18T06:35:40.568Z,21.10
2018-06-18T06:38:09.348Z,21.00
2018-06-18T06:40:38.086Z,21.00
2018-06-18T06:43:07.027Z,21.10
2018-06-18T06:45:35.861Z,21.20
2018-06-18T06:48:04.599Z,21.30
2018-06-18T06:53:02.119Z,21.30
2018-06-18T06:55:30.875Z,21.40
2018-06-18T06:57:59.861Z,21.50
2018-06-18T07:00:29.205Z,21.50
2018-06-18T07:02:58.040Z,21.40
2018-06-18T07:10:23.787Z,21.50
2018-06-18T07:17:50.275Z,21.70
2018-06-18T07:20:19.111Z,21.70
2018-06-18T07:22:47.869Z,21.60
2018-06-18T07:25:16.630Z,21.70
2018-06-18T07:37:39.360Z,21.90
2018-06-18T07:40:08.138Z,21.80
2018-06-18T07:42:36.923Z,21.80
2018-06-18T07:52:31.782Z,22.20
2018-06-18T07:55:00.696Z,22.30
2018-06-18T07:57:30.299Z,22.30
2018-06-18T07:59:59.185Z,22.20
2018-06-18T08:02:27.929Z,22.20
2018-06-18T08:04:56.690Z,22.10
2018-06-18T08:07:25.431Z,22.00
2018-06-18T08:09:54.212Z,22.00
2018-06-18T08:12:22.939Z,22.00
2018-06-18T08:14:51.669Z,21.90
2018-06-18T08:17:20.469Z,22.00
2018-06-18T08:22:17.738Z,22.10
2018-06-18T08:27:15.151Z,22.10
2018-06-18T08:29:43.923Z,22.20
2018-06-18T08:32:12.725Z,22.30
2018-06-18T08:34:41.577Z,22.20
2018-06-18T08:37:11.100Z,22.30
2018-06-18T08:39:39.894Z,22.40
2018-06-18T08:42:08.632Z,22.40
2018-06-18T08:44:37.380Z,22.40
2018-06-18T08:47:06.268Z,22.40
2018-06-18T08:49:39.267Z,22.40
2018-06-18T08:52:13.612Z,22.40
2018-06-18T08:54:47.978Z,22.40
2018-06-18T08:59:56.205Z,22.40
2018-06-18T09:05:06.202Z,22.50
2018-06-18T09:07:40.397Z,22.50
2018-06-18T09:10:09.139Z,22.50
2018-06-18T09:12:38.016Z,22.50
2018-06-18T09:15:07.172Z,22.60
2018-06-18T09:20:05.169Z,22.80
2018-06-18T09:22:33.905Z,22.80
2018-06-18T09:25:02.661Z,22.80
2018-06-18T09:27:31.422Z,22.80
2018-06-18T09:30:05.654Z,22.90
2018-06-18T09:32:34.503Z,23.10
2018-06-18T09:35:03.208Z,23.10
2018-06-18T09:40:00.502Z,23.10
2018-06-18T09:42:29.292Z,23.20
2018-06-18T09:44:58.054Z,23.40
2018-06-18T09:50:00.741Z,23.30
2018-06-18T09:52:34.961Z,23.30
2018-06-18T09:55:09.256Z,23.30
2018-06-18T09:57:43.530Z,23.30
2018-06-18T10:00:27.431Z,23.40
2018-06-18T10:02:56.479Z,23.50
2018-06-18T10:05:25.203Z,23.60
2018-06-18T10:07:53.945Z,23.50
2018-06-18T10:10:22.695Z,23.40
2018-06-18T10:12:51.449Z,23.50
2018-06-18T10:15:20.199Z,23.50
2018-06-18T10:17:48.912Z,23.50
2018-06-18T10:20:17.726Z,23.50
2018-06-18T10:22:46.535Z,23.40
2018-06-18T10:25:15.322Z,23.20
2018-06-18T10:27:44.081Z,23.10
2018-06-18T10:30:12.853Z,23.10
2018-06-18T10:32:47.289Z,23.10
2018-06-18T10:35:21.649Z,23.10
2018-06-18T10:40:29.929Z,23.20
2018-06-18T10:43:04.112Z,23.10
2018-06-18T10:45:32.827Z,23.20
2018-06-18T10:48:01.661Z,23.30
2018-06-18T10:50:30.372Z,23.40
2018-06-18T10:52:59.282Z,23.30
2018-06-18T10:55:28.066Z,23.20
2018-06-18T10:57:57.107Z,23.20
2018-06-18T11:00:27.191Z,23.10
2018-06-18T11:02:56.052Z,23.20
2018-06-18T11:07:58.941Z,23.30
2018-06-18T11:10:27.726Z,23.30
2018-06-18T11:12:56.578Z,23.30
2018-06-18T11:15:25.337Z,23.40
2018-06-18T11:17:59.607Z,23.50
2018-06-18T11:21:32.693Z,23.60
2018-06-18T11:24:07.042Z,23.70
2018-06-18T11:26:41.345Z,23.60
2018-06-18T11:29:10.294Z,23.70
2018-06-18T11:31:39.166Z,23.80
2018-06-18T11:34:07.957Z,23.90
2018-06-18T11:36:36.769Z,24.00
2018-06-18T11:39:08.154Z,24.10
2018-06-18T11:41:36.962Z,24.20
2018-06-18T11:44:05.876Z,24.20
2018-06-18T11:46:34.632Z,24.20
2018-06-18T11:49:03.419Z,24.20
2018-06-18T11:51:32.188Z,24.30
2018-06-18T11:54:01.472Z,24.20
2018-06-18T11:56:30.768Z,24.20
2018-06-18T11:59:05.055Z,24.20
2018-06-18T12:02:39.389Z,24.30
2018-06-18T12:05:13.677Z,24.30
2018-06-18T12:08:50.712Z,24.30
2018-06-18T12:11:19.492Z,24.30
2018-06-18T12:13:48.369Z,24.20
2018-06-18T12:18:45.553Z,24.40
2018-06-18T12:21:14.313Z,24.40
2018-06-18T12:26:11.596Z,24.40
2018-06-18T12:28:40.389Z,24.50
2018-06-18T12:31:09.146Z,24.50
2018-06-18T12:33:38.175Z,24.50
2018-06-18T12:36:08.469Z,24.40
2018-06-18T12:38:37.364Z,24.40
2018-06-18T12:41:06.477Z,24.40
2018-06-18T12:46:10.561Z,24.40
2018-06-18T12:48:44.767Z,24.40
2018-06-18T12:51:19.777Z,24.40
2018-06-18T12:53:54.360Z,24.40
2018-06-18T12:56:28.664Z,24.30
2018-06-18T12:58:57.531Z,24.40
2018-06-18T13:01:28.855Z,24.40
2018-06-18T13:03:57.704Z,24.50
2018-06-18T13:06:26.634Z,24.40
2018-06-18T13:08:55.400Z,24.30
2018-06-18T13:11:24.204Z,24.50
2018-06-18T13:13:52.998Z,24.60
2018-06-18T13:16:21.772Z,24.60
2018-06-18T13:18:50.539Z,24.50
2018-06-18T13:21:19.817Z,24.50
2018-06-18T13:23:48.564Z,24.40
2018-06-18T13:26:17.774Z,24.50
2018-06-18T13:31:15.549Z,24.60
2018-06-18T13:33:44.414Z,24.60
2018-06-18T13:38:47.236Z,24.80
2018-06-18T13:41:21.416Z,24.80
2018-06-18T13:43:55.616Z,24.80
2018-06-18T13:46:30.104Z,24.80
2018-06-18T13:48:58.867Z,24.80
2018-06-18T13:56:25.139Z,24.80
2018-06-18T13:58:54.462Z,24.80
2018-06-18T14:01:23.181Z,24.80
2018-06-18T14:03:51.968Z,24.80
2018-06-18T14:06:20.808Z,24.90
2018-06-18T14:08:49.800Z,24.90
2018-06-18T14:11:18.666Z,25.00
2018-06-18T14:13:47.516Z,25.10
2018-06-18T14:18:45.364Z,25.10
2018-06-18T14:21:14.094Z,25.20
2018-06-18T14:23:42.850Z,25.20
2018-06-18T14:26:11.740Z,25.30
2018-06-18T14:28:40.487Z,25.30
2018-06-18T14:31:14.764Z,25.40
2018-06-18T14:33:49.121Z,25.50
2018-06-18T14:36:23.362Z,25.50
2018-06-18T14:38:57.570Z,25.20
2018-06-18T14:43:54.859Z,25.10
2018-06-18T14:46:23.681Z,25.00
2018-06-18T14:48:52.446Z,25.10
2018-06-18T14:51:21.236Z,25.20
2018-06-18T14:53:49.986Z,25.10
2018-06-18T14:56:23.098Z,25.00
2018-06-18T15:01:25.815Z,25.10
2018-06-18T15:03:54.621Z,25.20
2018-06-18T15:06:23.322Z,25.20
2018-06-18T15:08:52.131Z,25.30
2018-06-18T15:11:20.856Z,25.40
2018-06-18T15:13:50.407Z,25.40
2018-06-18T15:18:53.096Z,25.20
2018-06-18T15:21:21.920Z,25.10
2018-06-18T15:23:50.707Z,25.10
2018-06-18T15:26:19.626Z,25.10
2018-06-18T15:28:48.710Z,25.00
2018-06-18T15:33:45.908Z,24.90
2018-06-18T15:36:14.678Z,24.90
2018-06-18T15:46:08.888Z,25.10
2018-06-18T15:48:37.640Z,25.10
2018-06-18T15:51:06.423Z,25.00
2018-06-18T15:53:35.184Z,25.00
2018-06-18T15:56:04.048Z,25.10
2018-06-18T15:58:32.823Z,25.10
2018-06-18T16:01:01.521Z,25.10
2018-06-18T16:03:30.282Z,25.00
2018-06-18T16:05:59.132Z,25.10
2018-06-18T16:08:27.884Z,25.10
2018-06-18T16:10:56.710Z,25.10
2018-06-18T16:13:25.490Z,25.00
2018-06-18T16:18:22.899Z,25.00
2018-06-18T16:20:51.859Z,25.00
2018-06-18T16:23:20.705Z,25.10
2018-06-18T16:25:49.494Z,25.20
2018-06-18T16:28:18.337Z,25.10
2018-06-18T16:30:47.069Z,25.10
2018-06-18T16:33:16.622Z,25.10
2018-06-18T16:35:45.377Z,25.20
2018-06-18T16:38:14.276Z,25.20
2018-06-18T16:40:42.990Z,25.20
2018-06-18T16:43:11.743Z,25.10
2018-06-18T16:45:40.571Z,25.00
2018-06-18T16:48:09.363Z,25.00
2018-06-18T16:50:38.159Z,25.00
2018-06-18T16:53:07.133Z,25.00
2018-06-18T16:55:35.930Z,25.00
2018-06-18T16:58:05.354Z,25.00
2018-06-18T17:00:34.276Z,25.10
2018-06-18T17:03:03.196Z,25.10
2018-06-18T17:05:31.971Z,25.10
2018-06-18T17:08:00.750Z,25.00
2018-06-18T17:10:29.525Z,24.90
2018-06-18T17:12:58.292Z,24.90
2018-06-18T17:15:27.772Z,24.90
2018-06-18T17:17:56.580Z,25.00
2018-06-18T17:20:25.268Z,25.00
2018-06-18T17:22:54.045Z,25.00
2018-06-18T17:25:22.831Z,25.00
2018-06-18T17:27:51.588Z,25.00
2018-06-18T17:30:21.569Z,25.00
2018-06-18T17:32:50.341Z,25.00
2018-06-18T17:35:19.188Z,24.90
2018-06-18T17:37:47.912Z,24.90
2018-06-18T17:40:16.830Z,24.80
2018-06-18T17:42:45.677Z,24.80
2018-06-18T17:45:14.455Z,24.70
2018-06-18T17:50:11.985Z,24.70
2018-06-18T17:52:40.877Z,24.70
2018-06-18T17:55:09.752Z,24.80
2018-06-18T17:57:38.552Z,24.70
2018-06-18T18:00:07.278Z,24.70
2018-06-18T18:02:36.030Z,24.70
2018-06-18T18:05:04.804Z,24.70
2018-06-18T18:07:33.584Z,24.60
2018-06-18T18:10:02.384Z,24.60
2018-06-18T18:12:31.288Z,24.60
2018-06-18T18:15:00.101Z,24.60
2018-06-18T18:17:28.781Z,24.60
2018-06-18T18:19:57.543Z,24.60
2018-06-18T18:22:26.312Z,24.50
2018-06-18T18:24:55.075Z,24.60
2018-06-18T18:27:23.975Z,24.70
2018-06-18T18:29:52.760Z,24.70
2018-06-18T18:34:50.081Z,24.70
2018-06-18T18:37:18.890Z,24.60
2018-06-18T18:39:47.653Z,24.60
2018-06-18T18:42:16.435Z,24.60
2018-06-18T18:44:45.196Z,24.60
2018-06-18T18:47:13.980Z,24.60
2018-06-18T18:49:43.214Z,24.70
2018-06-18T18:52:11.940Z,24.70
2018-06-18T18:56:52.221Z,24.60
2018-06-18T18:59:26.383Z,24.60
2018-06-18T19:01:55.318Z,24.40
2018-06-18T19:04:27.648Z,24.40
2018-06-18T19:06:56.362Z,24.40
2018-06-18T19:09:28.351Z,24.30
2018-06-18T19:11:57.196Z,24.30
2018-06-18T19:14:25.927Z,24.30
2018-06-18T19:16:54.677Z,24.20
2018-06-18T19:19:25.479Z,24.30
2018-06-18T19:21:54.207Z,24.30
2018-06-18T19:24:22.952Z,24.30
2018-06-18T19:26:51.757Z,24.30
2018-06-18T19:29:20.540Z,24.20
2018-06-18T19:31:49.284Z,24.20
2018-06-18T19:34:21.064Z,24.20
2018-06-18T19:39:23.708Z,24.10
2018-06-18T19:41:52.456Z,24.10
2018-06-18T19:44:21.284Z,24.10
2018-06-18T19:47:02.422Z,24.00
2018-06-18T19:51:59.749Z,24.00
2018-06-18T19:54:30.685Z,23.90
2018-06-18T19:56:59.455Z,24.00
2018-06-18T19:59:28.160Z,24.00
2018-06-18T20:01:56.903Z,24.00
2018-06-18T20:04:25.696Z,24.00
2018-06-18T20:06:54.474Z,24.10
2018-06-18T20:09:23.180Z,24.10
2018-06-18T20:11:51.975Z,24.10
2018-06-18T20:14:20.770Z,24.10
2018-06-18T20:16:49.516Z,24.20
2018-06-18T20:21:47.137Z,24.20
2018-06-18T20:24:15.879Z,24.20
2018-06-18T20:26:44.640Z,24.20
2018-06-18T20:29:13.403Z,24.20
2018-06-18T20:31:42.625Z,24.10
2018-06-18T20:34:11.415Z,24.10
2018-06-18T20:36:40.255Z,24.10
2018-06-18T20:39:10.899Z,24.10
2018-06-18T20:41:39.805Z,24.10
2018-06-18T20:44:14.930Z,24.10
2018-06-18T20:46:43.679Z,24.10
2018-06-18T20:49:13.666Z,24.10
2018-06-18T20:51:42.719Z,24.10
2018-06-18T20:54:12.457Z,24.00
2018-06-18T20:56:41.365Z,24.00
2018-06-18T20:59:12.401Z,24.00
2018-06-18T21:01:41.130Z,23.90
2018-06-18T21:06:38.349Z,23.90
2018-06-18T21:09:08.810Z,23.90
2018-06-18T21:11:37.697Z,23.90
2018-06-18T21:14:07.665Z,23.80
2018-06-18T21:16:37.281Z,23.70
2018-06-18T21:19:06.145Z,23.70
2018-06-18T21:21:34.869Z,23.70
2018-06-18T21:24:03.637Z,23.80
2018-06-18T21:26:32.528Z,23.80
2018-06-18T21:29:02.132Z,23.80
2018-06-18T21:31:30.923Z,23.80
2018-06-18T21:33:59.721Z,23.80
2018-06-18T21:36:28.478Z,23.60
2018-06-18T21:43:55.824Z,23.60
2018-06-18T21:46:24.891Z,23.70
2018-06-18T21:48:53.835Z,23.70
2018-06-18T21:51:22.633Z,23.70
2018-06-18T21:53:51.447Z,23.70
2018-06-18T21:56:20.258Z,23.70
2018-06-18T21:58:48.995Z,23.70
2018-06-18T22:01:29.260Z,23.70
2018-06-18T22:06:26.569Z,23.60
2018-06-18T22:08:55.334Z,23.60
2018-06-18T22:13:52.598Z,23.50
2018-06-18T22:18:49.851Z,23.50
2018-06-18T22:21:18.593Z,23.50
2018-06-18T22:23:47.330Z,23.50
2018-06-18T22:26:16.219Z,23.50
2018-06-18T22:28:44.961Z,23.40
2018-06-18T22:31:13.748Z,23.40
2018-06-18T22:33:42.496Z,23.40
2018-06-18T22:36:11.255Z,23.40
2018-06-18T22:38:40.089Z,23.40
2018-06-18T22:41:08.951Z,23.30
2018-06-18T22:43:37.701Z,23.30
2018-06-18T22:46:06.590Z,23.30
2018-06-18T22:48:35.514Z,23.30
2018-06-18T22:51:04.236Z,23.30
2018-06-18T22:53:32.990Z,23.30
2018-06-18T22:56:01.721Z,23.30
2018-06-18T22:58:30.500Z,23.30
2018-06-18T23:01:00.218Z,23.30
2018-06-18T23:03:28.958Z,23.30
2018-06-18T23:05:57.685Z,23.30
2018-06-18T23:10:55.018Z,23.30
2018-06-18T23:13:26.435Z,23.30
2018-06-18T23:15:55.184Z,23.30
2018-06-18T23:18:24.109Z,23.20
2018-06-18T23:20:53.200Z,23.20
2018-06-18T23:23:21.959Z,23.10
2018-06-18T23:25:51.373Z,23.20
2018-06-18T23:30:49.961Z,23.20
2018-06-18T23:33:18.809Z,23.20
2018-06-18T23:35:47.641Z,23.20
2018-06-18T23:38:16.437Z,23.30
2018-06-18T23:43:13.741Z,23.20
2018-06-18T23:45:42.522Z,23.10
2018-06-18T23:48:11.325Z,23.00
2018-06-18T23:50:40.056Z,22.90
2018-06-18T23:53:08.795Z,22.90
2018-06-18T23:55:37.541Z,22.90
2018-06-18T23:58:06.364Z,23.00
